Eastern Wv Regional Shepherd Field
KMRB : now visible

Airfield :











YOU CAN JOIN US ON...

 
LOGIN :

Register | Disclaimer

   EN    FR    IT 

 









Legend :    VFR   Marginal VFR   IFR   Intensive IFR   Very Intensive IFR
Visi :
Ceiling :
>= 8 km
>= 3000ft
5 to 8 km
1000 to 3000 ft
1500m to 5 km
500 to 1000 ft
800 to 1500m
200 to 500 ft
< 800m
< 200 ft
Symbols :   Thunderstorms  Fog  Heavy snow  Heavy precipitations  Wind > 20 kt






- Airport Elevation : 565 ft


KMRB - Eastern Wv Regional Shepherd Field

CURRENT METAR :
  • 151253Z 27014G26KT 10SM CLR 06/M01 A2982 RMK AO2 PK WND 26030/1219 SLP101 T00611006

EXPIRED METARs :
  • 151153Z AUTO 27016G22KT 10SM FEW042 07/00 A2980 RMK AO2 SLP093 70043 T00670000 10072 20061 53024
  • 151053Z AUTO 26016G23KT 10SM FEW065 07/00 A2977 RMK AO2 SLP082 T00670000

TAF KMRB
Valid from the 15 at 12:00 until the 16 at 12:00 UTC


151120Z 1512/1612 27010KT P6SM SCT200
FM151300 27012G19KT P6SM SCT200
FM152300 31007KT P6SM FEW200
FM160200 33004KT P6SM BKN140
FM160700 VRB03KT 4SM BR OVC020
FM160900 VRB03KT 2SM -SN OVC010



MET'MAP, your aeronautical weather chart ! - Copyright ORBIFLY December 2007 - Disclaimer

ORBIFLY MET'MAP TEAM :

Programming & Development : Alexandra Zaïnal
Concept & original design : Baudouin d'Aumeries
Assistance for programming : Marc-Olivier Méhu
Technical & hardware support : Manuel Goepfert

Contact : metmap@orbifly.com




SOURCES & CREDITS :

   NOAA       Earth
Advisory